Time;durP1;ratioP1;P1;durP2;ratioP2;P2;SDS_P1;SDS_P2;PMS_P1;PMS_P2;Temp;Humidity;BMP_temperature;BMP_pressure;BME280_temperature;BME280_humidity;BME280_pressure;Samples;Min_cycle;Max_cycle;Signal;HPM_P1;HPM_P2
2022/09/18 00:00:44;;;;;;;0.60;0.60;;;11.30;99.90;;;;;;5021602;28;20396;-84
2022/09/18 00:03:10;;;;;;;2.67;0.88;;;11.30;99.90;;;;;;5020266;28;20531;-83
2022/09/18 00:05:37;;;;;;;0.70;0.70;;;11.20;99.90;;;;;;5021988;28;20037;-84
2022/09/18 00:08:03;;;;;;;0.85;0.68;;;11.10;99.90;;;;;;5025164;28;20025;-84
2022/09/18 00:10:29;;;;;;;0.85;0.57;;;11.20;99.90;;;;;;5024074;28;20041;-84
2022/09/18 00:12:54;;;;;;;0.63;0.63;;;11.10;99.90;;;;;;5022272;28;20033;-84
2022/09/18 00:15:20;;;;;;;0.60;0.60;;;11.10;99.90;;;;;;5015739;28;20033;-83
2022/09/18 00:17:46;;;;;;;1.83;1.00;;;11.10;99.90;;;;;;5019770;28;20072;-83
2022/09/18 00:20:12;;;;;;;0.90;0.68;;;11.00;99.90;;;;;;5023136;28;20077;-83
2022/09/18 00:22:39;;;;;;;0.65;0.60;;;11.10;99.90;;;;;;5029950;28;20037;-84
2022/09/18 00:25:05;;;;;;;0.60;0.60;;;11.10;99.90;;;;;;5024158;28;20030;-82
2022/09/18 00:27:31;;;;;;;0.60;0.60;;;11.10;99.90;;;;;;5014431;28;20060;-83
2022/09/18 00:29:56;;;;;;;1.40;0.80;;;11.10;99.90;;;;;;5025927;28;20057;-83
2022/09/18 00:32:22;;;;;;;15.43;1.50;;;11.20;99.90;;;;;;5024066;28;20025;-82
2022/09/18 00:34:47;;;;;;;1.48;0.80;;;11.20;99.90;;;;;;5024090;28;20022;-82
2022/09/18 00:37:13;;;;;;;0.55;0.50;;;11.20;99.90;;;;;;5026369;28;20034;-84
2022/09/18 00:39:39;;;;;;;0.65;0.65;;;11.20;99.90;;;;;;5024402;28;20041;-83
2022/09/18 00:42:05;;;;;;;0.82;0.60;;;11.20;99.90;;;;;;5022436;28;21786;-83
2022/09/18 00:44:39;;;;;;;1.08;0.98;;;11.20;99.90;;;;;;5022763;28;20026;-83
2022/09/18 00:47:11;;;;;;;0.60;0.60;;;11.20;99.90;;;;;;5021645;28;20434;-83
2022/09/18 00:49:37;;;;;;;0.40;0.38;;;11.10;99.90;;;;;;5024045;28;20025;-82
2022/09/18 00:52:03;;;;;;;0.40;0.30;;;11.10;99.90;;;;;;5025959;28;20041;-82
2022/09/18 00:54:40;;;;;;;0.80;0.70;;;11.10;99.90;;;;;;5021297;28;20404;-82
2022/09/18 00:57:23;;;;;;;0.47;0.47;;;11.00;99.90;;;;;;5024713;28;20025;-83
2022/09/18 00:59:50;;;;;;;0.60;0.50;;;11.10;99.90;;;;;;5022691;28;22153;-82
2022/09/18 01:02:16;;;;;;;0.55;0.40;;;11.10;99.90;;;;;;5022172;28;20404;-82
2022/09/18 01:04:42;;;;;;;0.38;0.30;;;11.10;99.90;;;;;;5025263;28;20042;-83
2022/09/18 01:07:51;;;;;;;3.38;0.40;;;11.10;99.90;;;;;;5013335;28;20022;-83
2022/09/18 01:10:56;;;;;;;0.73;0.40;;;11.10;99.90;;;;;;5013822;28;20083;-82
2022/09/18 01:13:29;;;;;;;0.52;0.38;;;11.10;99.90;;;;;;4984913;28;20029;-82
2022/09/18 01:16:01;;;;;;;0.32;0.30;;;11.00;99.90;;;;;;5025930;28;20030;-83
2022/09/18 01:18:38;;;;;;;0.30;0.30;;;11.00;99.90;;;;;;5015983;28;20061;-83
2022/09/18 01:21:07;;;;;;;0.40;0.40;;;11.00;99.90;;;;;;5026544;28;20480;-83
2022/09/18 01:23:48;;;;;;;0.50;0.40;;;11.10;99.90;;;;;;5028276;28;20041;-84
2022/09/18 01:27:07;;;;;;;0.60;0.50;;;11.00;99.90;;;;;;5025162;28;20032;-83
2022/09/18 01:29:56;;;;;;;1.27;0.68;;;11.00;99.90;;;;;;4925784;29;20036;-83
2022/09/18 01:32:32;;;;;;;0.73;0.30;;;11.00;99.90;;;;;;4929413;29;20032;-83
2022/09/18 01:35:02;;;;;;;0.30;0.30;;;10.80;99.90;;;;;;4991939;28;20045;-83
2022/09/18 01:37:44;;;;;;;0.30;0.30;;;10.80;99.90;;;;;;5020151;28;20484;-82
2022/09/18 01:40:23;;;;;;;0.82;0.38;;;10.80;99.90;;;;;;5028561;28;20492;-82
2022/09/18 01:42:51;;;;;;;0.20;0.20;;;10.80;99.90;;;;;;5025533;28;20033;-83
2022/09/18 01:45:23;;;;;;;0.93;0.43;;;10.80;99.90;;;;;;5027684;28;20483;-82
2022/09/18 01:47:58;;;;;;;0.40;0.40;;;10.90;99.90;;;;;;5025018;28;20029;-83
2022/09/18 01:50:27;;;;;;;0.40;0.40;;;11.00;99.90;;;;;;5021722;28;20030;-83
2022/09/18 01:53:12;;;;;;;0.63;0.38;;;10.90;99.90;;;;;;5023653;28;20034;-83
2022/09/18 01:55:39;;;;;;;0.38;0.30;;;10.90;99.90;;;;;;5027897;28;20033;-83
2022/09/18 01:58:08;;;;;;;0.82;0.47;;;11.00;99.90;;;;;;5026459;28;20037;-82
2022/09/18 02:00:38;;;;;;;0.45;0.45;;;11.00;99.90;;;;;;5027275;28;20610;-83
2022/09/18 02:03:14;;;;;;;0.55;0.38;;;11.00;99.90;;;;;;5028253;28;20454;-82
2022/09/18 02:06:08;;;;;;;0.55;0.55;;;11.00;99.90;;;;;;5027984;28;20032;-83
2022/09/18 02:08:47;;;;;;;0.40;0.40;;;11.00;99.90;;;;;;5026097;28;20175;-83
2022/09/18 02:11:15;;;;;;;3.40;0.57;;;10.90;99.90;;;;;;5026347;28;20034;-83
2022/09/18 02:14:06;;;;;;;1.35;0.40;;;11.00;99.90;;;;;;5019847;28;20029;-83
2022/09/18 02:16:39;;;;;;;0.70;0.40;;;11.00;99.90;;;;;;5021226;28;20030;-83
2022/09/18 02:19:13;;;;;;;1.35;0.38;;;11.00;99.90;;;;;;5018023;28;20067;-82
2022/09/18 02:21:41;;;;;;;0.30;0.30;;;10.80;99.90;;;;;;5029558;28;20091;-84
2022/09/18 02:24:09;;;;;;;0.20;0.20;;;10.90;99.90;;;;;;5023900;28;20112;-83
2022/09/18 02:26:41;;;;;;;4.18;0.38;;;10.70;99.90;;;;;;5026951;28;20025;-83
2022/09/18 02:29:08;;;;;;;0.30;0.30;;;10.70;99.90;;;;;;5014579;28;20029;-82
2022/09/18 02:31:37;;;;;;;0.30;0.30;;;10.80;99.90;;;;;;5015897;28;20033;-82
2022/09/18 02:34:02;;;;;;;0.28;0.28;;;10.80;99.90;;;;;;5023837;28;20573;-83
2022/09/18 02:36:59;;;;;;;0.43;0.43;;;10.70;99.90;;;;;;5021543;28;20037;-83
2022/09/18 02:39:52;;;;;;;0.20;0.20;;;10.60;99.90;;;;;;5021899;28;20034;-83
2022/09/18 02:42:24;;;;;;;0.35;0.28;;;10.60;99.90;;;;;;5027091;28;20025;-84
2022/09/18 02:44:55;;;;;;;;;;;10.60;99.90;;;;;;5024827;28;20033;-82
2022/09/18 02:47:39;;;;;;;0.25;0.25;;;10.60;99.90;;;;;;5022735;28;19909;-83
2022/09/18 02:50:24;;;;;;;0.30;0.30;;;10.50;99.90;;;;;;5025263;28;20041;-83
2022/09/18 02:53:08;;;;;;;0.47;0.47;;;10.60;99.90;;;;;;5011709;28;20064;-82
2022/09/18 02:55:43;;;;;;;0.50;0.32;;;10.60;99.90;;;;;;5023831;28;20021;-82
2022/09/18 02:58:15;;;;;;;1.10;0.52;;;10.50;99.90;;;;;;5024478;28;20037;-82
2022/09/18 03:00:42;;;;;;;0.70;0.70;;;10.50;99.90;;;;;;5014331;28;20099;-82
2022/09/18 03:03:13;;;;;;;1.08;0.50;;;10.50;99.90;;;;;;5023675;28;20030;-82
2022/09/18 03:05:44;;;;;;;0.60;0.60;;;10.50;99.90;;;;;;5020084;28;20116;-82
2022/09/18 03:08:10;;;;;;;0.75;0.60;;;10.40;99.90;;;;;;5019089;28;20273;-82
2022/09/18 03:10:36;;;;;;;0.55;0.47;;;10.40;99.90;;;;;;5015393;28;20037;-82
2022/09/18 03:13:01;;;;;;;0.35;0.35;;;10.50;99.90;;;;;;5025359;28;20034;-83
2022/09/18 03:15:27;;;;;;;0.88;0.47;;;10.50;99.90;;;;;;5027917;28;20033;-83
2022/09/18 03:17:52;;;;;;;2.38;0.60;;;10.40;99.90;;;;;;5016736;28;20404;-82
2022/09/18 03:20:18;;;;;;;2.50;0.38;;;10.40;99.90;;;;;;5024006;28;20108;-82
2022/09/18 03:22:43;;;;;;;5.25;0.70;;;10.40;99.90;;;;;;5025982;28;20029;-82
2022/09/18 03:25:11;;;;;;;1.00;0.73;;;10.40;99.90;;;;;;5020284;28;20493;-82
2022/09/18 03:27:37;;;;;;;6.40;1.75;;;10.40;99.90;;;;;;5018455;28;20068;-82
2022/09/18 03:30:03;;;;;;;1.17;0.70;;;10.50;99.90;;;;;;5023150;28;20488;-83
2022/09/18 03:32:28;;;;;;;0.50;0.50;;;10.40;99.90;;;;;;5023405;28;20040;-83
2022/09/18 03:34:54;;;;;;;0.75;0.75;;;10.40;99.90;;;;;;5023973;28;20026;-83
2022/09/18 03:37:20;;;;;;;0.60;0.57;;;10.50;99.90;;;;;;5023230;28;20488;-83
2022/09/18 03:39:45;;;;;;;1.10;0.70;;;10.50;99.90;;;;;;5021644;28;20060;-83
2022/09/18 03:42:11;;;;;;;3.35;0.63;;;10.50;99.90;;;;;;5014338;28;20419;-83
2022/09/18 03:44:36;;;;;;;2.08;1.65;;;10.60;99.90;;;;;;5021338;28;20026;-82
2022/09/18 03:47:02;;;;;;;0.60;0.60;;;10.60;99.90;;;;;;5015875;28;20026;-82
2022/09/18 03:49:27;;;;;;;0.68;0.68;;;10.60;99.90;;;;;;5026316;28;20026;-83
2022/09/18 03:51:52;;;;;;;3.40;1.25;;;10.50;99.90;;;;;;5022530;28;20076;-82
2022/09/18 03:54:18;;;;;;;1.33;0.60;;;10.50;99.90;;;;;;5029012;28;20104;-83
2022/09/18 03:56:44;;;;;;;0.70;0.52;;;10.60;99.90;;;;;;5027915;28;20080;-82
2022/09/18 03:59:09;;;;;;;1.40;1.13;;;10.50;99.90;;;;;;5024966;28;20053;-83
2022/09/18 04:01:34;;;;;;;0.75;0.75;;;10.50;99.90;;;;;;5027530;28;20029;-83
2022/09/18 04:04:00;;;;;;;4.47;0.52;;;10.50;99.90;;;;;;5014382;28;20025;-83
2022/09/18 04:06:26;;;;;;;0.90;0.60;;;10.50;99.90;;;;;;5023470;28;20022;-83
2022/09/18 04:08:52;;;;;;;1.77;0.77;;;10.50;99.90;;;;;;5027819;28;20141;-83
2022/09/18 04:11:17;;;;;;;1.20;0.80;;;10.50;99.90;;;;;;5023051;28;20034;-83
2022/09/18 04:13:43;;;;;;;1.40;1.17;;;10.50;99.90;;;;;;5022352;28;20446;-84
2022/09/18 04:16:08;;;;;;;0.93;0.55;;;10.60;99.90;;;;;;5013901;28;20613;-83
2022/09/18 04:18:34;;;;;;;2.78;1.48;;;10.50;99.90;;;;;;5018231;28;20054;-83
2022/09/18 04:20:59;;;;;;;1.13;1.02;;;10.50;99.90;;;;;;5016442;28;20060;-84
2022/09/18 04:23:25;;;;;;;1.42;0.68;;;10.60;99.90;;;;;;5022397;28;20488;-83
2022/09/18 04:25:50;;;;;;;0.55;0.52;;;10.60;99.90;;;;;;5018717;28;20029;-83
2022/09/18 04:28:16;;;;;;;5.40;1.52;;;10.40;99.90;;;;;;5020437;28;20022;-82
2022/09/18 04:30:42;;;;;;;1.10;0.90;;;10.40;99.90;;;;;;5025477;28;20391;-82
2022/09/18 04:33:07;;;;;;;1.15;1.05;;;10.40;99.90;;;;;;5023319;28;20021;-83
2022/09/18 04:35:33;;;;;;;1.58;0.90;;;10.40;99.90;;;;;;5022470;28;20603;-83
2022/09/18 04:37:58;;;;;;;6.85;1.17;;;10.30;99.90;;;;;;5021038;28;20144;-83
2022/09/18 04:40:24;;;;;;;2.15;1.00;;;10.30;99.90;;;;;;5026631;28;20464;-82
2022/09/18 04:42:49;;;;;;;1.35;0.85;;;10.50;99.90;;;;;;5026076;28;20026;-82
2022/09/18 04:45:15;;;;;;;9.20;0.90;;;10.50;99.90;;;;;;5017039;28;20029;-82
2022/09/18 04:47:42;;;;;;;0.70;0.70;;;10.50;99.90;;;;;;5022891;28;20029;-83
2022/09/18 04:50:09;;;;;;;5.68;0.60;;;10.50;99.90;;;;;;5020248;28;20045;-83
2022/09/18 04:52:35;;;;;;;2.25;1.42;;;10.40;99.90;;;;;;5023297;28;20107;-82
2022/09/18 04:55:00;;;;;;;0.93;0.85;;;10.30;99.90;;;;;;5024393;28;20235;-82
2022/09/18 04:57:26;;;;;;;0.98;0.80;;;10.40;99.90;;;;;;5016107;28;20116;-82
2022/09/18 04:59:51;;;;;;;0.98;0.73;;;10.40;99.90;;;;;;5015622;28;20424;-83
2022/09/18 05:02:18;;;;;;;0.75;0.50;;;10.40;99.90;;;;;;5030805;28;20044;-83
2022/09/18 05:04:43;;;;;;;2.90;1.30;;;10.30;99.90;;;;;;5022755;28;20038;-83
2022/09/18 05:07:09;;;;;;;1.02;0.95;;;10.30;99.90;;;;;;5023401;28;20083;-83
2022/09/18 05:09:35;;;;;;;1.25;1.15;;;10.40;99.90;;;;;;5029476;28;20034;-82
2022/09/18 05:12:00;;;;;;;1.88;1.15;;;10.30;99.90;;;;;;5027653;28;20018;-81
2022/09/18 05:14:26;;;;;;;0.82;0.80;;;10.20;99.90;;;;;;5029580;28;20017;-82
2022/09/18 05:16:52;;;;;;;3.05;1.00;;;10.20;99.90;;;;;;5029156;28;20032;-82
2022/09/18 05:19:17;;;;;;;2.78;0.55;;;10.30;99.90;;;;;;5030875;28;20081;-83
2022/09/18 05:21:43;;;;;;;7.45;0.98;;;10.30;99.90;;;;;;5033573;28;20068;-82
2022/09/18 05:24:08;;;;;;;1.83;1.38;;;10.40;99.90;;;;;;5021775;28;20032;-83
2022/09/18 05:26:34;;;;;;;1.35;0.80;;;10.40;99.90;;;;;;5028442;28;20408;-82
2022/09/18 05:28:59;;;;;;;1.58;1.42;;;10.40;99.90;;;;;;5027804;28;20929;-82
2022/09/18 05:31:25;;;;;;;0.73;0.57;;;10.40;99.90;;;;;;5021502;28;20017;-83
2022/09/18 05:33:50;;;;;;;0.60;0.60;;;10.40;99.90;;;;;;5030717;28;20033;-82
2022/09/18 05:36:15;;;;;;;0.52;0.52;;;10.40;99.90;;;;;;5026405;28;20104;-82
2022/09/18 05:38:41;;;;;;;4.78;1.45;;;10.50;99.90;;;;;;5027075;28;20060;-83
2022/09/18 05:41:08;;;;;;;0.40;0.40;;;10.40;99.90;;;;;;5027688;28;20025;-82
2022/09/18 05:43:33;;;;;;;1.17;0.70;;;10.50;99.90;;;;;;5029114;28;20092;-83
2022/09/18 05:46:00;;;;;;;5.22;1.45;;;10.30;99.90;;;;;;5028904;28;20026;-82
2022/09/18 05:48:25;;;;;;;3.33;1.20;;;10.30;99.90;;;;;;5027356;28;20641;-82
2022/09/18 05:50:51;;;;;;;6.93;2.40;;;10.30;99.90;;;;;;5023699;28;20021;-82
2022/09/18 05:53:18;;;;;;;1.02;0.40;;;10.20;99.90;;;;;;5023204;28;20492;-82
2022/09/18 05:55:44;;;;;;;0.57;0.50;;;10.20;99.90;;;;;;5018992;28;20625;-82
2022/09/18 05:58:15;;;;;;;2.53;0.88;;;10.10;99.90;;;;;;5023200;28;20053;-84
2022/09/18 06:00:43;;;;;;;1.17;0.73;;;10.10;99.90;;;;;;5028503;28;20045;-83
2022/09/18 06:03:14;;;;;;;4.00;0.57;;;10.10;99.90;;;;;;5024233;28;20407;-83
2022/09/18 06:05:40;;;;;;;10.67;1.70;;;9.90;99.90;;;;;;5025495;28;20080;-82
2022/09/18 06:08:07;;;;;;;6.28;1.00;;;9.90;99.90;;;;;;5023620;28;20021;-83
2022/09/18 06:10:36;;;;;;;4.63;0.77;;;10.00;99.90;;;;;;5024300;28;20112;-83
2022/09/18 06:13:11;;;;;;;1.13;0.73;;;9.90;99.90;;;;;;5020448;28;20033;-81
2022/09/18 06:15:37;;;;;;;1.17;0.70;;;9.80;99.90;;;;;;5022889;28;20030;-83
2022/09/18 06:18:04;;;;;;;2.58;0.52;;;9.70;99.90;;;;;;5022778;28;20033;-83
2022/09/18 06:20:29;;;;;;;0.82;0.40;;;9.70;99.90;;;;;;5025823;28;20095;-83
2022/09/18 06:22:58;;;;;;;1.15;0.77;;;9.90;99.90;;;;;;5024072;28;20038;-83
2022/09/18 06:25:24;;;;;;;0.40;0.40;;;9.80;99.90;;;;;;5021767;28;20033;-82
2022/09/18 06:27:57;;;;;;;5.38;0.75;;;9.80;99.90;;;;;;5020423;28;20544;-84
2022/09/18 06:30:23;;;;;;;6.75;0.77;;;9.80;99.90;;;;;;5022142;28;20173;-83
2022/09/18 06:32:49;;;;;;;1.42;1.08;;;9.80;99.90;;;;;;5017884;28;20112;-83
2022/09/18 06:35:14;;;;;;;0.50;0.50;;;9.90;99.90;;;;;;5028756;28;20120;-83
2022/09/18 06:37:39;;;;;;;1.02;0.80;;;10.00;99.90;;;;;;5025065;28;20060;-84
2022/09/18 06:40:05;;;;;;;1.52;0.80;;;10.00;99.90;;;;;;5025667;28;20108;-82
2022/09/18 06:42:31;;;;;;;3.25;1.77;;;10.00;99.90;;;;;;5023240;28;20040;-82
2022/09/18 06:44:56;;;;;;;1.05;0.63;;;10.30;99.90;;;;;;5022677;28;20018;-82
2022/09/18 06:47:22;;;;;;;0.60;0.50;;;10.30;99.90;;;;;;5023902;28;20084;-73
2022/09/18 06:49:47;;;;;;;1.20;1.02;;;10.10;99.90;;;;;;5026805;28;20120;-77
2022/09/18 06:52:13;;;;;;;0.82;0.60;;;10.20;99.90;;;;;;5022394;28;20511;-73
2022/09/18 06:54:38;;;;;;;4.05;1.13;;;10.20;99.90;;;;;;5021078;28;20032;-72
2022/09/18 06:57:07;;;;;;;4.25;0.88;;;10.20;99.90;;;;;;5022738;28;20669;-76
2022/09/18 06:59:33;;;;;;;2.35;0.95;;;10.30;99.90;;;;;;5024933;28;20022;-76
2022/09/18 07:01:58;;;;;;;0.90;0.70;;;10.30;99.90;;;;;;5014733;28;20038;-76
2022/09/18 07:04:24;;;;;;;1.10;0.68;;;10.20;99.90;;;;;;5017183;28;20026;-77
2022/09/18 07:06:49;;;;;;;4.55;1.60;;;10.40;99.90;;;;;;5023820;28;20539;-76
2022/09/18 07:09:15;;;;;;;1.00;0.90;;;10.30;99.90;;;;;;5014069;28;20022;-76
2022/09/18 07:11:40;;;;;;;2.83;0.93;;;10.30;99.90;;;;;;5023599;28;20064;-76
2022/09/18 07:14:07;;;;;;;3.45;0.90;;;10.30;99.90;;;;;;5024575;28;20500;-77
2022/09/18 07:16:33;;;;;;;6.03;0.70;;;10.30;99.90;;;;;;5024072;28;20030;-77
2022/09/18 07:18:59;;;;;;;1.98;1.13;;;10.50;99.90;;;;;;5023807;28;20057;-78
2022/09/18 07:21:24;;;;;;;2.05;1.70;;;10.50;99.90;;;;;;5027975;28;20112;-77
2022/09/18 07:23:50;;;;;;;4.03;0.88;;;10.70;99.90;;;;;;5030701;28;20067;-76
2022/09/18 07:26:15;;;;;;;5.75;1.13;;;10.60;99.90;;;;;;5021536;28;20030;-76
2022/09/18 07:28:59;;;;;;;1.30;0.80;;;10.90;99.90;;;;;;5020740;28;20396;-76
2022/09/18 07:31:24;;;;;;;1.13;0.63;;;10.80;99.90;;;;;;5021761;28;20021;-75
2022/09/18 07:33:59;;;;;;;6.20;1.00;;;10.80;99.90;;;;;;5024221;28;20076;-76
2022/09/18 07:36:25;;;;;;;2.20;0.88;;;10.90;99.90;;;;;;5017350;28;20458;-76
2022/09/18 07:38:51;;;;;;;3.53;0.50;;;11.00;99.90;;;;;;5024051;28;20041;-77
2022/09/18 07:41:20;;;;;;;4.40;0.98;;;11.10;99.90;;;;;;5024875;28;20041;-77
2022/09/18 07:43:48;;;;;;;4.55;0.60;;;11.10;99.90;;;;;;5024269;28;20071;-78
2022/09/18 07:46:13;;;;;;;3.90;0.60;;;11.20;99.90;;;;;;5021418;28;20053;-75
2022/09/18 07:48:39;;;;;;;1.20;0.38;;;11.20;99.90;;;;;;5027938;28;20025;-75
2022/09/18 07:51:05;;;;;;;2.70;1.17;;;11.20;99.90;;;;;;5025404;28;20036;-76
2022/09/18 07:53:31;;;;;;;4.63;0.77;;;11.10;99.90;;;;;;5019259;28;20105;-77
2022/09/18 07:55:57;;;;;;;4.63;0.90;;;11.10;99.90;;;;;;5026368;28;20053;-78
2022/09/18 07:58:23;;;;;;;1.35;0.47;;;11.10;99.90;;;;;;5026876;28;20472;-75
2022/09/18 08:00:49;;;;;;;2.83;0.50;;;11.30;99.90;;;;;;5024036;28;20029;-75
2022/09/18 08:03:14;;;;;;;2.13;0.45;;;11.50;99.90;;;;;;5016859;28;20550;-77
2022/09/18 08:05:40;;;;;;;2.65;0.40;;;11.50;99.90;;;;;;5020330;28;20029;-77
2022/09/18 08:08:15;;;;;;;1.20;1.00;;;11.60;99.90;;;;;;5022359;28;20073;-78
2022/09/18 08:10:44;;;;;;;0.73;0.68;;;11.90;99.90;;;;;;5018514;28;20030;-77
2022/09/18 08:13:13;;;;;;;8.10;1.10;;;11.80;99.90;;;;;;5025500;28;20112;-77
2022/09/18 08:15:39;;;;;;;0.60;0.60;;;12.20;99.90;;;;;;5025937;28;20083;-76
2022/09/18 08:18:07;;;;;;;0.57;0.40;;;12.40;99.90;;;;;;5016003;28;20395;-75
2022/09/18 08:20:36;;;;;;;1.15;0.52;;;12.10;99.90;;;;;;5022338;28;20034;-76
2022/09/18 08:23:03;;;;;;;1.38;0.68;;;12.10;99.90;;;;;;5019629;28;20061;-77
2022/09/18 08:25:29;;;;;;;3.17;1.15;;;12.10;99.90;;;;;;5003239;28;20037;-77
2022/09/18 08:28:02;;;;;;;4.28;1.30;;;12.10;99.90;;;;;;5018231;28;20116;-79
2022/09/18 08:30:28;;;;;;;4.18;0.73;;;12.10;99.90;;;;;;5022924;28;20112;-77
2022/09/18 08:33:02;;;;;;;0.68;0.52;;;12.30;99.90;;;;;;5027839;28;20041;-80
2022/09/18 08:35:29;;;;;;;4.72;1.52;;;12.30;99.90;;;;;;5018347;28;20108;-78
2022/09/18 08:37:54;;;;;;;0.47;0.47;;;12.40;99.90;;;;;;5023673;28;20032;-79
2022/09/18 08:40:26;;;;;;;0.55;0.55;;;12.40;99.90;;;;;;5019694;28;20022;-76
2022/09/18 08:43:08;;;;;;;1.50;0.80;;;12.30;99.90;;;;;;5026137;28;20048;-76
2022/09/18 08:45:40;;;;;;;;;;;12.40;99.90;;;;;;5028500;28;20027;-77
2022/09/18 08:48:22;;;;;;;0.73;0.47;;;12.40;99.90;;;;;;5027983;28;19916;-78
2022/09/18 08:51:18;;;;;;;3.90;0.90;;;12.80;99.90;;;;;;5017296;28;20026;-76
2022/09/18 08:53:47;;;;;;;3.03;0.50;;;13.30;99.90;;;;;;5019967;28;20040;-78
2022/09/18 08:56:19;;;;;;;2.10;0.77;;;13.10;99.90;;;;;;5024081;28;20288;-79
2022/09/18 08:58:56;;;;;;;2.42;0.80;;;13.40;99.90;;;;;;5021218;28;20021;-83
2022/09/18 09:01:29;;;;;;;3.40;0.90;;;13.20;99.90;;;;;;5021254;28;20076;-77
2022/09/18 09:04:01;;;;;;;4.22;0.75;;;13.20;99.90;;;;;;5020164;28;20065;-73
2022/09/18 09:07:09;;;;;;;1.48;0.73;;;13.20;99.90;;;;;;5019758;28;20529;-77
2022/09/18 09:10:02;;;;;;;1.67;0.60;;;13.40;99.90;;;;;;5026953;28;20046;-78
2022/09/18 09:12:40;;;;;;;2.58;0.82;;;13.40;99.90;;;;;;5024034;28;20088;-76
2022/09/18 09:15:21;;;;;;;2.95;1.15;;;13.40;99.90;;;;;;5029060;28;20026;-79
2022/09/18 09:18:18;;;;;;;2.70;1.15;;;13.70;99.90;;;;;;5022111;28;20033;-79
2022/09/18 09:20:50;;;;;;;1.75;1.13;;;13.90;99.90;;;;;;5020742;28;20091;-77
2022/09/18 09:23:30;;;;;;;2.22;0.60;;;14.20;99.90;;;;;;5021889;28;20051;-77
2022/09/18 09:26:05;;;;;;;2.53;1.00;;;14.40;99.90;;;;;;5027614;28;20033;-77
2022/09/18 09:28:58;;;;;;;2.05;1.02;;;14.20;99.90;;;;;;5023758;28;20419;-77
2022/09/18 09:31:33;;;;;;;1.50;0.50;;;14.50;99.40;;;;;;5023912;28;20025;-76
2022/09/18 09:34:14;;;;;;;2.60;0.57;;;14.70;97.50;;;;;;5017658;28;20037;-76
2022/09/18 09:36:42;;;;;;;3.28;0.70;;;14.80;99.50;;;;;;5019570;28;20034;-75
2022/09/18 09:39:28;;;;;;;1.05;0.77;;;14.90;96.80;;;;;;5023502;28;20025;-77
2022/09/18 09:41:58;;;;;;;0.30;0.30;;;15.00;95.50;;;;;;5023414;28;20044;-76
2022/09/18 09:44:38;;;;;;;3.13;0.98;;;14.80;95.50;;;;;;5020263;28;20037;-76
2022/09/18 09:47:32;;;;;;;1.08;0.63;;;15.40;95.00;;;;;;5021718;28;20045;-76
2022/09/18 09:50:25;;;;;;;1.95;0.40;;;15.40;92.10;;;;;;5025238;28;20028;-76
2022/09/18 09:52:56;;;;;;;3.63;0.45;;;15.10;92.30;;;;;;5022038;28;20577;-77
2022/09/18 09:55:39;;;;;;;0.40;0.40;;;14.80;92.70;;;;;;5024774;28;20149;-75
2022/09/18 09:58:21;;;;;;;0.52;0.40;;;14.40;94.10;;;;;;5015648;28;20034;-74
2022/09/18 10:01:05;;;;;;;0.30;0.30;;;16.30;91.40;;;;;;5019240;28;20057;-78
2022/09/18 10:04:05;;;;;;;0.30;0.30;;;17.50;83.50;;;;;;5020498;28;20029;-75
2022/09/18 10:07:01;;;;;;;1.02;0.60;;;18.60;79.70;;;;;;5025585;28;20025;-75
2022/09/18 10:09:52;;;;;;;2.38;0.60;;;17.10;84.20;;;;;;5017676;28;20049;-75
2022/09/18 10:12:23;;;;;;;2.95;0.70;;;17.40;81.20;;;;;;5000047;28;20033;-78
2022/09/18 10:14:51;;;;;;;2.22;0.38;;;17.70;78.10;;;;;;5021051;28;20104;-78
2022/09/18 10:17:20;;;;;;;1.23;0.93;;;18.10;74.30;;;;;;5012078;28;20036;-78
2022/09/18 10:19:46;;;;;;;0.47;0.38;;;16.70;80.20;;;;;;5018673;28;20056;-75
2022/09/18 10:22:22;;;;;;;5.68;0.63;;;16.60;81.30;;;;;;5015020;28;20030;-76
2022/09/18 10:24:57;;;;;;;0.38;0.38;;;15.40;87.40;;;;;;5012084;28;20033;-76
2022/09/18 10:27:23;;;;;;;4.30;0.90;;;14.20;90.60;;;;;;5020055;28;20036;-75
2022/09/18 10:29:51;;;;;;;2.67;0.60;;;13.80;96.20;;;;;;5016869;28;20549;-76
2022/09/18 10:32:38;;;;;;;1.65;0.57;;;13.30;98.50;;;;;;5010723;28;20034;-75
2022/09/18 10:35:48;;;;;;;0.82;0.38;;;13.50;97.60;;;;;;5017055;28;20030;-76
2022/09/18 10:38:29;;;;;;;0.40;0.40;;;16.10;86.10;;;;;;5019228;28;20068;-76
2022/09/18 10:40:55;;;;;;;5.43;0.80;;;16.30;89.40;;;;;;5017777;28;20030;-75
2022/09/18 10:43:21;;;;;;;1.88;0.70;;;16.90;85.00;;;;;;5019741;28;20029;-75
2022/09/18 10:45:53;;;;;;;6.05;0.50;;;18.30;80.20;;;;;;5017993;28;20075;-76
2022/09/18 10:48:24;;;;;;;0.30;0.30;;;18.60;77.50;;;;;;5021265;28;20441;-76
2022/09/18 10:50:56;;;;;;;0.60;0.60;;;17.90;72.90;;;;;;5015172;28;20025;-75
2022/09/18 10:53:31;;;;;;;3.10;0.50;;;16.00;79.90;;;;;;5004293;28;20053;-78
2022/09/18 10:56:16;;;;;;;1.17;0.40;;;15.20;84.50;;;;;;5016456;28;20034;-77
2022/09/18 10:58:42;;;;;;;2.22;0.45;;;13.70;99.90;;;;;;5000244;28;20028;-76
2022/09/18 11:01:09;;;;;;;1.60;0.50;;;11.90;99.90;;;;;;5028418;28;20362;-77
2022/09/18 11:03:41;;;;;;;0.73;0.55;;;11.70;99.90;;;;;;5020315;28;20489;-76
2022/09/18 11:06:22;;;;;;;0.68;0.55;;;12.30;99.90;;;;;;5021595;28;20037;-77
2022/09/18 11:08:51;;;;;;;6.28;0.77;;;12.50;99.90;;;;;;5029124;28;20042;-77
2022/09/18 11:11:40;;;;;;;3.42;0.60;;;13.90;99.90;;;;;;5020562;28;20033;-76
2022/09/18 11:14:23;;;;;;;2.08;0.77;;;14.50;99.90;;;;;;5022281;28;20041;-77
2022/09/18 11:16:54;;;;;;;0.80;0.70;;;15.90;99.90;;;;;;5017449;28;20394;-80
2022/09/18 11:19:30;;;;;;;2.08;0.98;;;16.50;99.90;;;;;;5012511;28;20124;-79
2022/09/18 11:22:01;;;;;;;1.48;0.50;;;17.60;99.90;;;;;;5020350;28;20017;-81
2022/09/18 11:24:30;;;;;;;1.33;0.50;;;16.90;99.90;;;;;;5020322;28;20033;-77
2022/09/18 11:26:57;;;;;;;4.15;1.08;;;15.70;99.90;;;;;;5017547;28;20025;-77
2022/09/18 11:29:31;;;;;;;0.57;0.40;;;14.60;99.90;;;;;;5012649;28;20113;-77
2022/09/18 11:32:13;;;;;;;0.30;0.30;;;14.40;99.90;;;;;;5013872;28;20022;-77
2022/09/18 11:34:48;;;;;;;0.65;0.30;;;14.30;99.90;;;;;;5023704;28;20514;-76
2022/09/18 11:37:30;;;;;;;1.98;0.50;;;15.10;99.90;;;;;;5015541;28;20025;-78
2022/09/18 11:40:03;;;;;;;0.82;0.30;;;19.00;90.50;;;;;;5014979;28;20037;-77
2022/09/18 11:42:39;;;;;;;0.68;0.30;;;20.60;78.10;;;;;;5016679;28;20219;-77
2022/09/18 11:45:22;;;;;;;2.42;0.85;;;23.10;69.60;;;;;;5016553;28;20492;-76
2022/09/18 11:48:09;;;;;;;0.30;0.22;;;24.20;61.60;;;;;;5018161;28;20048;-77
2022/09/18 11:50:37;;;;;;;1.33;0.55;;;24.30;55.10;;;;;;5010941;28;20030;-77
2022/09/18 11:53:23;;;;;;;0.73;0.35;;;25.20;52.90;;;;;;5011549;28;20033;-74
2022/09/18 11:55:56;;;;;;;5.10;0.95;;;23.80;50.10;;;;;;5014018;28;20661;-74
2022/09/18 11:58:44;;;;;;;0.45;0.43;;;25.80;49.20;;;;;;5014415;28;20108;-76
2022/09/18 12:01:26;;;;;;;0.38;0.38;;;28.10;45.20;;;;;;5010811;28;20025;-77
2022/09/18 12:03:58;;;;;;;0.57;0.50;;;27.20;41.80;;;;;;5022948;28;20028;-75
2022/09/18 12:06:50;;;;;;;2.92;0.60;;;22.80;50.20;;;;;;5018599;28;20021;-76
2022/09/18 12:09:27;;;;;;;2.22;0.40;;;18.50;61.30;;;;;;5018503;28;20025;-76
2022/09/18 12:12:43;;;;;;;0.65;0.30;;;15.30;73.60;;;;;;5013406;28;20057;-75
2022/09/18 12:15:15;;;;;;;0.17;0.17;;;12.70;99.90;;;;;;4994074;28;20073;-77
2022/09/18 12:17:58;;;;;;;0.10;0.10;;;11.30;99.90;;;;;;5017258;28;20072;-76
2022/09/18 12:20:41;;;;;;;0.22;0.22;;;11.00;99.90;;;;;;5014381;28;20129;-76
2022/09/18 12:23:14;;;;;;;1.35;0.75;;;11.00;99.90;;;;;;5015214;28;20081;-75
2022/09/18 12:26:03;;;;;;;0.20;0.20;;;11.20;99.90;;;;;;5026747;28;20081;-76
2022/09/18 12:28:58;;;;;;;2.78;0.30;;;12.30;99.90;;;;;;5028318;28;20538;-75
2022/09/18 12:32:03;;;;;;;3.10;0.50;;;16.30;99.90;;;;;;5033429;28;20034;-76
2022/09/18 12:34:59;;;;;;;1.17;0.60;;;17.20;99.90;;;;;;5022903;28;20033;-75
2022/09/18 12:37:45;;;;;;;1.40;0.50;;;20.70;77.50;;;;;;5033207;28;20036;-76
2022/09/18 12:40:22;;;;;;;0.52;0.43;;;;;;;;;;5025492;28;20125;-76
2022/09/18 12:42:57;;;;;;;0.70;0.40;;;;;;;;;;5034555;28;20365;-76
2022/09/18 12:45:42;;;;;;;2.10;0.60;;;;;;;;;;5030439;28;20031;-76
2022/09/18 12:48:37;;;;;;;0.30;0.30;;;;;;;;;;5031059;28;20029;-76
2022/09/18 12:51:22;;;;;;;0.80;0.55;;;;;;;;;;5025800;28;20403;-76
2022/09/18 12:53:59;;;;;;;0.40;0.40;;;;;;;;;;5023211;28;20602;-77
2022/09/18 12:56:44;;;;;;;1.60;0.60;;;;;;;;;;5026305;28;20033;-75
2022/09/18 12:59:32;;;;;;;1.95;0.60;;;;;;;;;;5023896;28;20072;-75
2022/09/18 13:02:04;;;;;;;3.40;0.73;;;;;;;;;;5025991;28;20025;-77
2022/09/18 13:04:40;;;;;;;1.20;0.57;;;;;;;;;;5028412;28;20069;-77
2022/09/18 13:07:11;;;;;;;0.85;0.43;;;;;;;;;;5022222;28;20715;-77
2022/09/18 13:10:03;;;;;;;4.30;0.60;;;;;;;;;;5031786;28;20044;-76
2022/09/18 13:12:45;;;;;;;3.38;0.35;;;;;;;;;;5002509;28;20037;-75
2022/09/18 13:15:11;;;;;;;;;;;;;;;;;;5023053;28;20040;-76
2022/09/18 13:17:40;;;;;;;0.40;0.40;;;;;;;;;;5031474;28;19912;-76
2022/09/18 13:20:13;;;;;;;1.00;0.47;;;;;;;;;;5024570;28;20498;-76